sensor_id;sensor_type;location;lat;lon;timestamp;temperature;humidity
21906;DHT22;11117;48.644;9.006;2024-02-28T00:01:31;7.50;99.90
21906;DHT22;11117;48.644;9.006;2024-02-28T00:03:58;7.50;99.90
21906;DHT22;11117;48.644;9.006;2024-02-28T00:06:24;7.40;99.90
21906;DHT22;11117;48.644;9.006;2024-02-28T00:08:49;7.50;99.90
21906;DHT22;11117;48.644;9.006;2024-02-28T00:11:15;7.40;99.90
21906;DHT22;11117;48.644;9.006;2024-02-28T00:13:40;7.40;99.90
21906;DHT22;11117;48.644;9.006;2024-02-28T00:16:06;7.40;99.90
21906;DHT22;11117;48.644;9.006;2024-02-28T00:18:31;7.40;99.90
21906;DHT22;11117;48.644;9.006;2024-02-28T00:20:57;7.40;99.90
21906;DHT22;11117;48.644;9.006;2024-02-28T00:23:23;7.40;99.90
21906;DHT22;11117;48.644;9.006;2024-02-28T00:25:48;7.60;99.90
21906;DHT22;11117;48.644;9.006;2024-02-28T00:28:14;7.70;99.90
21906;DHT22;11117;48.644;9.006;2024-02-28T00:30:39;7.60;99.90
21906;DHT22;11117;48.644;9.006;2024-02-28T00:33:05;7.60;99.90
21906;DHT22;11117;48.644;9.006;2024-02-28T00:35:32;7.30;99.90
21906;DHT22;11117;48.644;9.006;2024-02-28T00:37:58;7.30;99.90
21906;DHT22;11117;48.644;9.006;2024-02-28T00:40:23;7.30;99.90
21906;DHT22;11117;48.644;9.006;2024-02-28T00:42:49;7.40;99.90
21906;DHT22;11117;48.644;9.006;2024-02-28T00:45:15;7.20;99.90
21906;DHT22;11117;48.644;9.006;2024-02-28T00:47:40;7.20;99.90
21906;DHT22;11117;48.644;9.006;2024-02-28T00:50:06;7.20;99.90
21906;DHT22;11117;48.644;9.006;2024-02-28T00:52:31;7.30;99.90
21906;DHT22;11117;48.644;9.006;2024-02-28T00:54:57;7.20;99.90
21906;DHT22;11117;48.644;9.006;2024-02-28T00:57:23;7.30;99.90
21906;DHT22;11117;48.644;9.006;2024-02-28T00:59:48;7.20;99.90
21906;DHT22;11117;48.644;9.006;2024-02-28T01:02:14;7.20;99.90
21906;DHT22;11117;48.644;9.006;2024-02-28T01:04:40;7.10;99.90
21906;DHT22;11117;48.644;9.006;2024-02-28T01:07:06;7.10;99.90
21906;DHT22;11117;48.644;9.006;2024-02-28T01:09:32;7.10;99.90
21906;DHT22;11117;48.644;9.006;2024-02-28T01:11:58;7.10;99.90
21906;DHT22;11117;48.644;9.006;2024-02-28T01:14:24;7.10;99.90
21906;DHT22;11117;48.644;9.006;2024-02-28T01:16:49;7.10;99.90
21906;DHT22;11117;48.644;9.006;2024-02-28T01:19:16;6.90;99.90
21906;DHT22;11117;48.644;9.006;2024-02-28T01:21:41;6.70;99.90
21906;DHT22;11117;48.644;9.006;2024-02-28T01:24:07;6.70;99.90
21906;DHT22;11117;48.644;9.006;2024-02-28T01:26:33;6.70;99.90
21906;DHT22;11117;48.644;9.006;2024-02-28T01:28:58;6.80;99.90
21906;DHT22;11117;48.644;9.006;2024-02-28T01:31:24;6.80;99.90
21906;DHT22;11117;48.644;9.006;2024-02-28T01:33:49;6.80;99.90
21906;DHT22;11117;48.644;9.006;2024-02-28T01:36:15;6.90;99.90
21906;DHT22;11117;48.644;9.006;2024-02-28T01:38:41;6.70;99.90
21906;DHT22;11117;48.644;9.006;2024-02-28T01:41:06;6.80;99.90
21906;DHT22;11117;48.644;9.006;2024-02-28T01:43:32;6.70;99.90
21906;DHT22;11117;48.644;9.006;2024-02-28T01:46:01;6.80;99.90
21906;DHT22;11117;48.644;9.006;2024-02-28T01:48:28;6.80;99.90
21906;DHT22;11117;48.644;9.006;2024-02-28T01:50:54;6.90;99.90
21906;DHT22;11117;48.644;9.006;2024-02-28T01:53:20;6.90;99.90
21906;DHT22;11117;48.644;9.006;2024-02-28T01:55:46;7.00;99.90
21906;DHT22;11117;48.644;9.006;2024-02-28T01:58:12;7.00;99.90
21906;DHT22;11117;48.644;9.006;2024-02-28T02:00:38;6.80;99.90
21906;DHT22;11117;48.644;9.006;2024-02-28T02:03:04;6.90;99.90
21906;DHT22;11117;48.644;9.006;2024-02-28T02:05:30;6.80;99.90
21906;DHT22;11117;48.644;9.006;2024-02-28T02:07:59;6.70;99.90
21906;DHT22;11117;48.644;9.006;2024-02-28T02:10:25;6.70;99.90
21906;DHT22;11117;48.644;9.006;2024-02-28T02:12:51;6.90;99.90
21906;DHT22;11117;48.644;9.006;2024-02-28T02:15:17;6.80;99.90
21906;DHT22;11117;48.644;9.006;2024-02-28T02:17:42;6.70;99.90
21906;DHT22;11117;48.644;9.006;2024-02-28T02:20:10;6.80;99.90
21906;DHT22;11117;48.644;9.006;2024-02-28T02:22:37;6.60;99.90
21906;DHT22;11117;48.644;9.006;2024-02-28T02:25:03;6.70;99.90
21906;DHT22;11117;48.644;9.006;2024-02-28T02:27:29;6.70;99.90
21906;DHT22;11117;48.644;9.006;2024-02-28T02:29:55;6.80;99.90
21906;DHT22;11117;48.644;9.006;2024-02-28T02:32:20;6.80;99.90
21906;DHT22;11117;48.644;9.006;2024-02-28T02:34:46;6.70;99.90
21906;DHT22;11117;48.644;9.006;2024-02-28T02:37:11;6.80;99.90
21906;DHT22;11117;48.644;9.006;2024-02-28T02:39:37;6.90;99.90
21906;DHT22;11117;48.644;9.006;2024-02-28T02:42:03;6.80;99.90
21906;DHT22;11117;48.644;9.006;2024-02-28T02:44:28;6.90;99.90
21906;DHT22;11117;48.644;9.006;2024-02-28T02:46:54;7.10;99.90
21906;DHT22;11117;48.644;9.006;2024-02-28T02:49:19;7.10;99.90
21906;DHT22;11117;48.644;9.006;2024-02-28T02:51:45;7.00;99.90
21906;DHT22;11117;48.644;9.006;2024-02-28T02:54:11;7.00;99.90
21906;DHT22;11117;48.644;9.006;2024-02-28T02:56:36;6.90;99.90
21906;DHT22;11117;48.644;9.006;2024-02-28T02:59:02;7.00;99.90
21906;DHT22;11117;48.644;9.006;2024-02-28T03:01:28;7.10;99.90
21906;DHT22;11117;48.644;9.006;2024-02-28T03:03:53;7.20;99.90
21906;DHT22;11117;48.644;9.006;2024-02-28T03:06:19;7.20;99.90
21906;DHT22;11117;48.644;9.006;2024-02-28T03:08:45;7.30;99.90
21906;DHT22;11117;48.644;9.006;2024-02-28T03:11:10;7.40;99.90
21906;DHT22;11117;48.644;9.006;2024-02-28T03:13:36;7.30;99.90
21906;DHT22;11117;48.644;9.006;2024-02-28T03:16:03;7.30;99.90
21906;DHT22;11117;48.644;9.006;2024-02-28T03:18:29;7.10;99.90
21906;DHT22;11117;48.644;9.006;2024-02-28T03:20:55;7.20;99.90
21906;DHT22;11117;48.644;9.006;2024-02-28T03:23:21;7.20;99.90
21906;DHT22;11117;48.644;9.006;2024-02-28T03:25:47;7.20;99.90
21906;DHT22;11117;48.644;9.006;2024-02-28T03:28:12;7.10;99.90
21906;DHT22;11117;48.644;9.006;2024-02-28T03:30:38;7.10;99.90
21906;DHT22;11117;48.644;9.006;2024-02-28T03:33:03;7.20;99.90
21906;DHT22;11117;48.644;9.006;2024-02-28T03:35:29;7.20;99.90
21906;DHT22;11117;48.644;9.006;2024-02-28T03:37:55;7.10;99.90
21906;DHT22;11117;48.644;9.006;2024-02-28T03:40:20;7.10;99.90
21906;DHT22;11117;48.644;9.006;2024-02-28T03:42:46;7.20;99.90
21906;DHT22;11117;48.644;9.006;2024-02-28T03:45:11;7.20;99.90
21906;DHT22;11117;48.644;9.006;2024-02-28T03:47:37;7.20;99.90
21906;DHT22;11117;48.644;9.006;2024-02-28T03:50:02;7.20;99.90
21906;DHT22;11117;48.644;9.006;2024-02-28T03:52:28;7.20;99.90
21906;DHT22;11117;48.644;9.006;2024-02-28T03:54:54;7.30;99.90
21906;DHT22;11117;48.644;9.006;2024-02-28T03:57:19;7.10;99.90
21906;DHT22;11117;48.644;9.006;2024-02-28T03:59:45;6.90;99.90
21906;DHT22;11117;48.644;9.006;2024-02-28T04:02:10;6.90;99.90
21906;DHT22;11117;48.644;9.006;2024-02-28T04:04:36;6.90;99.90
21906;DHT22;11117;48.644;9.006;2024-02-28T04:07:01;6.80;99.90
21906;DHT22;11117;48.644;9.006;2024-02-28T04:09:27;6.70;99.90
21906;DHT22;11117;48.644;9.006;2024-02-28T04:11:52;6.60;99.90
21906;DHT22;11117;48.644;9.006;2024-02-28T04:14:18;6.50;99.90
21906;DHT22;11117;48.644;9.006;2024-02-28T04:16:44;6.50;99.90
21906;DHT22;11117;48.644;9.006;2024-02-28T04:19:11;6.60;99.90
21906;DHT22;11117;48.644;9.006;2024-02-28T04:21:37;6.50;99.90
21906;DHT22;11117;48.644;9.006;2024-02-28T04:24:03;6.40;99.90
21906;DHT22;11117;48.644;9.006;2024-02-28T04:26:29;6.40;99.90
21906;DHT22;11117;48.644;9.006;2024-02-28T04:28:55;6.30;99.90
21906;DHT22;11117;48.644;9.006;2024-02-28T04:31:20;6.40;99.90
21906;DHT22;11117;48.644;9.006;2024-02-28T04:33:46;6.40;99.90
21906;DHT22;11117;48.644;9.006;2024-02-28T04:36:11;6.10;99.90
21906;DHT22;11117;48.644;9.006;2024-02-28T04:38:37;6.10;99.90
21906;DHT22;11117;48.644;9.006;2024-02-28T04:41:03;6.20;99.90
21906;DHT22;11117;48.644;9.006;2024-02-28T04:43:28;6.10;99.90
21906;DHT22;11117;48.644;9.006;2024-02-28T04:45:54;6.00;99.90
21906;DHT22;11117;48.644;9.006;2024-02-28T04:48:19;5.90;99.90
21906;DHT22;11117;48.644;9.006;2024-02-28T04:50:45;5.90;99.90
21906;DHT22;11117;48.644;9.006;2024-02-28T04:53:11;6.00;99.90
21906;DHT22;11117;48.644;9.006;2024-02-28T04:55:37;6.00;99.90
21906;DHT22;11117;48.644;9.006;2024-02-28T04:58:02;6.10;99.90
21906;DHT22;11117;48.644;9.006;2024-02-28T05:00:28;5.90;99.90
21906;DHT22;11117;48.644;9.006;2024-02-28T05:02:54;5.90;99.90
21906;DHT22;11117;48.644;9.006;2024-02-28T05:05:20;6.00;99.90
21906;DHT22;11117;48.644;9.006;2024-02-28T05:07:46;5.90;99.90
21906;DHT22;11117;48.644;9.006;2024-02-28T05:10:11;5.90;99.90
21906;DHT22;11117;48.644;9.006;2024-02-28T05:12:38;6.00;99.90
21906;DHT22;11117;48.644;9.006;2024-02-28T05:15:04;5.90;99.90
21906;DHT22;11117;48.644;9.006;2024-02-28T05:17:29;6.00;99.90
21906;DHT22;11117;48.644;9.006;2024-02-28T05:19:55;5.80;99.90
21906;DHT22;11117;48.644;9.006;2024-02-28T05:22:21;5.80;99.90
21906;DHT22;11117;48.644;9.006;2024-02-28T05:24:47;5.90;99.90
21906;DHT22;11117;48.644;9.006;2024-02-28T05:27:12;5.90;99.90
21906;DHT22;11117;48.644;9.006;2024-02-28T05:29:38;5.70;99.90
21906;DHT22;11117;48.644;9.006;2024-02-28T05:32:04;5.70;99.90
21906;DHT22;11117;48.644;9.006;2024-02-28T05:34:29;5.70;99.90
21906;DHT22;11117;48.644;9.006;2024-02-28T05:36:55;5.80;99.90
21906;DHT22;11117;48.644;9.006;2024-02-28T05:39:21;5.80;99.90
21906;DHT22;11117;48.644;9.006;2024-02-28T05:41:46;5.90;99.90
21906;DHT22;11117;48.644;9.006;2024-02-28T05:44:12;5.80;99.90
21906;DHT22;11117;48.644;9.006;2024-02-28T05:46:37;5.80;99.90
21906;DHT22;11117;48.644;9.006;2024-02-28T05:49:04;5.80;99.90
21906;DHT22;11117;48.644;9.006;2024-02-28T05:51:29;5.70;99.90
21906;DHT22;11117;48.644;9.006;2024-02-28T05:53:55;5.70;99.90
21906;DHT22;11117;48.644;9.006;2024-02-28T05:56:20;5.70;99.90
21906;DHT22;11117;48.644;9.006;2024-02-28T05:58:47;5.70;99.90
21906;DHT22;11117;48.644;9.006;2024-02-28T06:01:15;5.70;99.90
21906;DHT22;11117;48.644;9.006;2024-02-28T06:03:41;5.70;99.90
21906;DHT22;11117;48.644;9.006;2024-02-28T06:06:06;5.90;99.90
21906;DHT22;11117;48.644;9.006;2024-02-28T06:08:33;6.00;99.90
21906;DHT22;11117;48.644;9.006;2024-02-28T06:10:59;6.00;99.90
21906;DHT22;11117;48.644;9.006;2024-02-28T06:13:25;5.80;99.90
21906;DHT22;11117;48.644;9.006;2024-02-28T06:15:50;5.90;99.90
21906;DHT22;11117;48.644;9.006;2024-02-28T06:18:16;6.00;99.90
21906;DHT22;11117;48.644;9.006;2024-02-28T06:20:41;6.10;99.90
21906;DHT22;11117;48.644;9.006;2024-02-28T06:23:07;6.10;99.90
21906;DHT22;11117;48.644;9.006;2024-02-28T06:25:37;6.00;99.90
21906;DHT22;11117;48.644;9.006;2024-02-28T06:28:02;6.00;99.90
21906;DHT22;11117;48.644;9.006;2024-02-28T06:30:28;6.10;99.90
21906;DHT22;11117;48.644;9.006;2024-02-28T06:32:54;6.10;99.90
21906;DHT22;11117;48.644;9.006;2024-02-28T06:35:19;6.10;99.90
21906;DHT22;11117;48.644;9.006;2024-02-28T06:37:45;6.10;99.90
21906;DHT22;11117;48.644;9.006;2024-02-28T06:40:11;6.10;99.90
21906;DHT22;11117;48.644;9.006;2024-02-28T06:42:36;6.10;99.90
21906;DHT22;11117;48.644;9.006;2024-02-28T06:45:02;6.00;99.90
21906;DHT22;11117;48.644;9.006;2024-02-28T06:47:28;5.90;99.90
21906;DHT22;11117;48.644;9.006;2024-02-28T06:49:54;5.90;99.90
21906;DHT22;11117;48.644;9.006;2024-02-28T06:52:19;6.00;99.90
21906;DHT22;11117;48.644;9.006;2024-02-28T06:54:45;6.00;99.90
21906;DHT22;11117;48.644;9.006;2024-02-28T06:57:10;6.20;99.90
21906;DHT22;11117;48.644;9.006;2024-02-28T06:59:36;6.20;99.90
21906;DHT22;11117;48.644;9.006;2024-02-28T07:02:01;6.30;99.90
21906;DHT22;11117;48.644;9.006;2024-02-28T07:04:27;6.30;99.90
21906;DHT22;11117;48.644;9.006;2024-02-28T07:06:52;6.30;99.90
21906;DHT22;11117;48.644;9.006;2024-02-28T07:09:18;6.40;99.90
21906;DHT22;11117;48.644;9.006;2024-02-28T07:11:43;6.50;99.90
21906;DHT22;11117;48.644;9.006;2024-02-28T07:14:09;6.60;99.90
21906;DHT22;11117;48.644;9.006;2024-02-28T07:16:34;6.60;99.90
21906;DHT22;11117;48.644;9.006;2024-02-28T07:19:00;6.70;99.90
21906;DHT22;11117;48.644;9.006;2024-02-28T07:21:26;6.80;99.90
21906;DHT22;11117;48.644;9.006;2024-02-28T07:23:52;7.00;99.90
21906;DHT22;11117;48.644;9.006;2024-02-28T07:26:17;7.10;99.90
21906;DHT22;11117;48.644;9.006;2024-02-28T07:28:43;7.20;99.90
21906;DHT22;11117;48.644;9.006;2024-02-28T07:31:16;7.30;99.90
21906;DHT22;11117;48.644;9.006;2024-02-28T07:33:41;7.20;99.90
21906;DHT22;11117;48.644;9.006;2024-02-28T07:36:07;7.00;99.90
21906;DHT22;11117;48.644;9.006;2024-02-28T07:38:33;7.10;99.90
21906;DHT22;11117;48.644;9.006;2024-02-28T07:40:58;7.20;99.90
21906;DHT22;11117;48.644;9.006;2024-02-28T07:43:24;7.10;99.90
21906;DHT22;11117;48.644;9.006;2024-02-28T07:45:50;7.00;99.90
21906;DHT22;11117;48.644;9.006;2024-02-28T07:48:15;7.10;99.90
21906;DHT22;11117;48.644;9.006;2024-02-28T07:50:41;6.90;99.90
21906;DHT22;11117;48.644;9.006;2024-02-28T07:53:07;6.80;99.90
21906;DHT22;11117;48.644;9.006;2024-02-28T07:55:34;6.80;99.90
21906;DHT22;11117;48.644;9.006;2024-02-28T07:58:00;7.00;99.90
21906;DHT22;11117;48.644;9.006;2024-02-28T08:00:26;7.10;99.90
21906;DHT22;11117;48.644;9.006;2024-02-28T08:02:51;7.20;99.90
21906;DHT22;11117;48.644;9.006;2024-02-28T08:05:17;7.10;99.90
21906;DHT22;11117;48.644;9.006;2024-02-28T08:07:42;7.10;99.90
21906;DHT22;11117;48.644;9.006;2024-02-28T08:10:08;7.00;99.90
21906;DHT22;11117;48.644;9.006;2024-02-28T08:12:34;6.80;99.90
21906;DHT22;11117;48.644;9.006;2024-02-28T08:14:59;6.60;99.90
21906;DHT22;11117;48.644;9.006;2024-02-28T08:17:25;6.80;99.90
21906;DHT22;11117;48.644;9.006;2024-02-28T08:19:50;7.00;99.90
21906;DHT22;11117;48.644;9.006;2024-02-28T08:22:16;7.00;99.90
21906;DHT22;11117;48.644;9.006;2024-02-28T08:24:41;7.00;99.90
21906;DHT22;11117;48.644;9.006;2024-02-28T08:27:07;6.80;99.90
21906;DHT22;11117;48.644;9.006;2024-02-28T08:29:33;6.60;99.90
21906;DHT22;11117;48.644;9.006;2024-02-28T08:31:58;6.60;99.90
21906;DHT22;11117;48.644;9.006;2024-02-28T08:34:24;6.80;99.90
21906;DHT22;11117;48.644;9.006;2024-02-28T08:36:49;6.80;99.90
21906;DHT22;11117;48.644;9.006;2024-02-28T08:39:15;6.80;99.90
21906;DHT22;11117;48.644;9.006;2024-02-28T08:41:40;6.90;99.90
21906;DHT22;11117;48.644;9.006;2024-02-28T08:44:06;7.00;99.90
21906;DHT22;11117;48.644;9.006;2024-02-28T08:46:31;7.10;99.90
21906;DHT22;11117;48.644;9.006;2024-02-28T08:48:57;7.20;99.90
21906;DHT22;11117;48.644;9.006;2024-02-28T08:51:23;7.40;99.90
21906;DHT22;11117;48.644;9.006;2024-02-28T08:53:48;7.10;99.90
21906;DHT22;11117;48.644;9.006;2024-02-28T08:56:14;7.00;99.90
21906;DHT22;11117;48.644;9.006;2024-02-28T08:58:39;6.80;99.90
21906;DHT22;11117;48.644;9.006;2024-02-28T09:01:05;6.80;99.90
21906;DHT22;11117;48.644;9.006;2024-02-28T09:03:30;6.90;99.90
21906;DHT22;11117;48.644;9.006;2024-02-28T09:05:56;6.90;99.90
21906;DHT22;11117;48.644;9.006;2024-02-28T09:08:22;7.10;99.90
21906;DHT22;11117;48.644;9.006;2024-02-28T09:10:47;7.00;99.90
21906;DHT22;11117;48.644;9.006;2024-02-28T09:13:13;6.80;99.90
21906;DHT22;11117;48.644;9.006;2024-02-28T09:15:38;6.80;99.90
21906;DHT22;11117;48.644;9.006;2024-02-28T09:18:04;6.80;99.90
21906;DHT22;11117;48.644;9.006;2024-02-28T09:20:30;6.80;99.90
21906;DHT22;11117;48.644;9.006;2024-02-28T09:22:56;7.00;99.90
21906;DHT22;11117;48.644;9.006;2024-02-28T09:25:21;7.10;99.90
21906;DHT22;11117;48.644;9.006;2024-02-28T09:27:47;7.10;99.90
21906;DHT22;11117;48.644;9.006;2024-02-28T09:30:13;7.30;99.90
21906;DHT22;11117;48.644;9.006;2024-02-28T09:32:39;7.20;99.90
21906;DHT22;11117;48.644;9.006;2024-02-28T09:35:04;7.30;99.90
21906;DHT22;11117;48.644;9.006;2024-02-28T09:37:30;7.40;99.90
21906;DHT22;11117;48.644;9.006;2024-02-28T09:39:56;7.80;99.90
21906;DHT22;11117;48.644;9.006;2024-02-28T09:42:21;7.90;99.90
21906;DHT22;11117;48.644;9.006;2024-02-28T09:44:47;8.10;99.90
21906;DHT22;11117;48.644;9.006;2024-02-28T09:47:13;8.30;99.90
21906;DHT22;11117;48.644;9.006;2024-02-28T09:49:39;8.30;99.90
21906;DHT22;11117;48.644;9.006;2024-02-28T09:52:07;8.40;99.90
21906;DHT22;11117;48.644;9.006;2024-02-28T09:54:32;8.50;99.90
21906;DHT22;11117;48.644;9.006;2024-02-28T09:56:58;8.50;99.90
21906;DHT22;11117;48.644;9.006;2024-02-28T09:59:24;8.60;99.90
21906;DHT22;11117;48.644;9.006;2024-02-28T10:01:56;8.50;99.90
21906;DHT22;11117;48.644;9.006;2024-02-28T10:04:23;8.20;99.90
21906;DHT22;11117;48.644;9.006;2024-02-28T10:06:51;8.20;99.90
21906;DHT22;11117;48.644;9.006;2024-02-28T10:09:16;8.00;99.90
21906;DHT22;11117;48.644;9.006;2024-02-28T10:11:42;8.30;99.90
21906;DHT22;11117;48.644;9.006;2024-02-28T10:14:07;8.70;99.90
21906;DHT22;11117;48.644;9.006;2024-02-28T10:16:33;9.10;99.90
21906;DHT22;11117;48.644;9.006;2024-02-28T10:18:59;9.30;99.90
21906;DHT22;11117;48.644;9.006;2024-02-28T10:21:24;9.60;99.90
21906;DHT22;11117;48.644;9.006;2024-02-28T10:23:50;9.80;99.90
21906;DHT22;11117;48.644;9.006;2024-02-28T10:26:15;10.00;99.90
21906;DHT22;11117;48.644;9.006;2024-02-28T10:28:41;10.20;99.90
21906;DHT22;11117;48.644;9.006;2024-02-28T10:31:07;10.40;99.90
21906;DHT22;11117;48.644;9.006;2024-02-28T10:33:33;10.60;99.90
21906;DHT22;11117;48.644;9.006;2024-02-28T10:35:58;10.70;99.90
21906;DHT22;11117;48.644;9.006;2024-02-28T10:38:26;10.80;99.90
21906;DHT22;11117;48.644;9.006;2024-02-28T10:40:53;10.50;99.90
21906;DHT22;11117;48.644;9.006;2024-02-28T10:43:19;10.10;99.90
21906;DHT22;11117;48.644;9.006;2024-02-28T10:45:45;10.40;99.90
21906;DHT22;11117;48.644;9.006;2024-02-28T10:48:11;10.60;99.90
21906;DHT22;11117;48.644;9.006;2024-02-28T10:50:39;10.60;99.90
21906;DHT22;11117;48.644;9.006;2024-02-28T10:53:04;10.70;99.90
21906;DHT22;11117;48.644;9.006;2024-02-28T10:55:40;10.80;99.90
21906;DHT22;11117;48.644;9.006;2024-02-28T10:58:07;10.90;99.90
21906;DHT22;11117;48.644;9.006;2024-02-28T11:00:42;11.10;99.90
21906;DHT22;11117;48.644;9.006;2024-02-28T11:03:08;11.20;99.90
21906;DHT22;11117;48.644;9.006;2024-02-28T11:05:43;11.40;99.90
21906;DHT22;11117;48.644;9.006;2024-02-28T11:08:09;11.60;99.90
21906;DHT22;11117;48.644;9.006;2024-02-28T11:10:41;11.70;99.90
21906;DHT22;11117;48.644;9.006;2024-02-28T11:13:07;11.80;99.90
21906;DHT22;11117;48.644;9.006;2024-02-28T11:15:38;11.80;99.90
21906;DHT22;11117;48.644;9.006;2024-02-28T11:18:07;11.80;99.90
21906;DHT22;11117;48.644;9.006;2024-02-28T11:20:38;11.60;99.90
21906;DHT22;11117;48.644;9.006;2024-02-28T11:23:06;11.50;99.90
21906;DHT22;11117;48.644;9.006;2024-02-28T11:25:56;11.60;99.90
21906;DHT22;11117;48.644;9.006;2024-02-28T11:28:22;11.30;99.90
21906;DHT22;11117;48.644;9.006;2024-02-28T11:30:47;11.20;99.90
21906;DHT22;11117;48.644;9.006;2024-02-28T11:33:13;11.40;99.90
21906;DHT22;11117;48.644;9.006;2024-02-28T11:35:39;11.60;99.90
21906;DHT22;11117;48.644;9.006;2024-02-28T11:38:06;11.60;99.90
21906;DHT22;11117;48.644;9.006;2024-02-28T11:40:34;11.60;99.90
21906;DHT22;11117;48.644;9.006;2024-02-28T11:43:00;11.70;99.90
21906;DHT22;11117;48.644;9.006;2024-02-28T11:45:26;11.70;99.90
21906;DHT22;11117;48.644;9.006;2024-02-28T11:47:52;11.80;99.90
21906;DHT22;11117;48.644;9.006;2024-02-28T11:50:17;11.60;99.90
21906;DHT22;11117;48.644;9.006;2024-02-28T11:52:43;11.40;99.90
21906;DHT22;11117;48.644;9.006;2024-02-28T11:55:09;11.10;99.90
21906;DHT22;11117;48.644;9.006;2024-02-28T11:57:34;11.40;99.90
21906;DHT22;11117;48.644;9.006;2024-02-28T12:00:04;11.50;99.90
21906;DHT22;11117;48.644;9.006;2024-02-28T12:02:30;11.70;99.90
21906;DHT22;11117;48.644;9.006;2024-02-28T12:05:00;11.80;99.90
21906;DHT22;11117;48.644;9.006;2024-02-28T12:07:26;11.90;99.90
21906;DHT22;11117;48.644;9.006;2024-02-28T12:09:54;11.90;99.90
21906;DHT22;11117;48.644;9.006;2024-02-28T12:12:19;11.50;99.90
21906;DHT22;11117;48.644;9.006;2024-02-28T12:14:46;11.10;99.90
21906;DHT22;11117;48.644;9.006;2024-02-28T12:17:11;10.60;99.90
21906;DHT22;11117;48.644;9.006;2024-02-28T12:19:39;10.10;99.90
21906;DHT22;11117;48.644;9.006;2024-02-28T12:22:04;9.30;99.90
21906;DHT22;11117;48.644;9.006;2024-02-28T12:24:30;9.30;99.90
21906;DHT22;11117;48.644;9.006;2024-02-28T12:26:55;9.30;99.90
21906;DHT22;11117;48.644;9.006;2024-02-28T12:29:21;9.60;99.90
21906;DHT22;11117;48.644;9.006;2024-02-28T12:31:47;9.90;99.90
21906;DHT22;11117;48.644;9.006;2024-02-28T12:34:12;9.50;99.90
21906;DHT22;11117;48.644;9.006;2024-02-28T12:36:38;9.00;99.90
21906;DHT22;11117;48.644;9.006;2024-02-28T12:39:08;8.70;99.90
21906;DHT22;11117;48.644;9.006;2024-02-28T12:41:34;8.40;99.90
21906;DHT22;11117;48.644;9.006;2024-02-28T12:44:00;8.40;99.90
21906;DHT22;11117;48.644;9.006;2024-02-28T12:46:25;8.10;99.90
21906;DHT22;11117;48.644;9.006;2024-02-28T12:48:51;8.50;99.90
21906;DHT22;11117;48.644;9.006;2024-02-28T12:54:01;8.80;99.90
21906;DHT22;11117;48.644;9.006;2024-02-28T12:56:29;8.70;99.90
21906;DHT22;11117;48.644;9.006;2024-02-28T12:58:55;8.80;99.90
21906;DHT22;11117;48.644;9.006;2024-02-28T13:01:20;9.00;99.90
21906;DHT22;11117;48.644;9.006;2024-02-28T13:03:46;9.40;99.90
21906;DHT22;11117;48.644;9.006;2024-02-28T13:06:12;9.10;99.90
21906;DHT22;11117;48.644;9.006;2024-02-28T13:08:37;8.70;99.90
21906;DHT22;11117;48.644;9.006;2024-02-28T13:11:03;9.00;99.90
21906;DHT22;11117;48.644;9.006;2024-02-28T13:13:29;9.30;99.90
21906;DHT22;11117;48.644;9.006;2024-02-28T13:15:54;9.30;99.90
21906;DHT22;11117;48.644;9.006;2024-02-28T13:18:20;9.50;99.90
21906;DHT22;11117;48.644;9.006;2024-02-28T13:20:45;9.70;99.90
21906;DHT22;11117;48.644;9.006;2024-02-28T13:23:11;9.90;99.90
21906;DHT22;11117;48.644;9.006;2024-02-28T13:25:36;9.60;99.90
21906;DHT22;11117;48.644;9.006;2024-02-28T13:28:02;9.40;99.90
21906;DHT22;11117;48.644;9.006;2024-02-28T13:30:28;8.90;99.90
21906;DHT22;11117;48.644;9.006;2024-02-28T13:32:53;8.70;99.90
21906;DHT22;11117;48.644;9.006;2024-02-28T13:35:19;8.60;99.90
21906;DHT22;11117;48.644;9.006;2024-02-28T13:37:44;8.50;99.90
21906;DHT22;11117;48.644;9.006;2024-02-28T13:40:10;8.60;99.90
21906;DHT22;11117;48.644;9.006;2024-02-28T13:42:36;8.70;99.90
21906;DHT22;11117;48.644;9.006;2024-02-28T13:45:02;8.60;99.90
21906;DHT22;11117;48.644;9.006;2024-02-28T13:47:27;8.70;99.90
21906;DHT22;11117;48.644;9.006;2024-02-28T13:49:53;8.90;99.90
21906;DHT22;11117;48.644;9.006;2024-02-28T13:52:19;9.00;99.90
21906;DHT22;11117;48.644;9.006;2024-02-28T13:54:44;8.80;99.90
21906;DHT22;11117;48.644;9.006;2024-02-28T13:57:10;8.90;99.90
21906;DHT22;11117;48.644;9.006;2024-02-28T13:59:35;8.70;99.90
21906;DHT22;11117;48.644;9.006;2024-02-28T14:02:01;8.90;99.90
21906;DHT22;11117;48.644;9.006;2024-02-28T14:04:26;9.10;99.90
21906;DHT22;11117;48.644;9.006;2024-02-28T14:06:52;9.10;99.90
21906;DHT22;11117;48.644;9.006;2024-02-28T14:09:17;9.20;99.90
21906;DHT22;11117;48.644;9.006;2024-02-28T14:11:43;9.40;99.90
21906;DHT22;11117;48.644;9.006;2024-02-28T14:14:10;9.50;99.90
21906;DHT22;11117;48.644;9.006;2024-02-28T14:16:36;9.60;99.90
21906;DHT22;11117;48.644;9.006;2024-02-28T14:19:03;9.60;99.90
21906;DHT22;11117;48.644;9.006;2024-02-28T14:21:28;9.50;99.90
21906;DHT22;11117;48.644;9.006;2024-02-28T14:23:54;9.70;99.90
21906;DHT22;11117;48.644;9.006;2024-02-28T14:26:19;10.00;99.90
21906;DHT22;11117;48.644;9.006;2024-02-28T14:28:45;10.00;99.90
21906;DHT22;11117;48.644;9.006;2024-02-28T14:31:11;10.00;99.90
21906;DHT22;11117;48.644;9.006;2024-02-28T14:33:36;10.10;99.90
21906;DHT22;11117;48.644;9.006;2024-02-28T14:36:02;9.70;99.90
21906;DHT22;11117;48.644;9.006;2024-02-28T14:38:28;9.70;99.90
21906;DHT22;11117;48.644;9.006;2024-02-28T14:40:53;9.90;99.90
21906;DHT22;11117;48.644;9.006;2024-02-28T14:43:19;9.80;99.90
21906;DHT22;11117;48.644;9.006;2024-02-28T14:45:44;10.00;99.90
21906;DHT22;11117;48.644;9.006;2024-02-28T14:48:10;10.10;99.90
21906;DHT22;11117;48.644;9.006;2024-02-28T14:50:35;10.00;99.90
21906;DHT22;11117;48.644;9.006;2024-02-28T14:53:01;9.70;99.90
21906;DHT22;11117;48.644;9.006;2024-02-28T14:55:27;9.80;99.90
21906;DHT22;11117;48.644;9.006;2024-02-28T14:57:52;9.90;99.90
21906;DHT22;11117;48.644;9.006;2024-02-28T15:00:18;10.00;99.90
21906;DHT22;11117;48.644;9.006;2024-02-28T15:02:44;9.90;99.90
21906;DHT22;11117;48.644;9.006;2024-02-28T15:05:11;9.70;99.90
21906;DHT22;11117;48.644;9.006;2024-02-28T15:07:37;9.40;99.90
21906;DHT22;11117;48.644;9.006;2024-02-28T15:10:03;9.50;99.90
21906;DHT22;11117;48.644;9.006;2024-02-28T15:12:29;9.50;99.90
21906;DHT22;11117;48.644;9.006;2024-02-28T15:14:55;9.60;99.90
21906;DHT22;11117;48.644;9.006;2024-02-28T15:17:21;9.70;99.90
21906;DHT22;11117;48.644;9.006;2024-02-28T15:19:46;9.80;99.90
21906;DHT22;11117;48.644;9.006;2024-02-28T15:22:12;9.90;99.90
21906;DHT22;11117;48.644;9.006;2024-02-28T15:24:37;9.90;99.90
21906;DHT22;11117;48.644;9.006;2024-02-28T15:27:03;10.00;99.90
21906;DHT22;11117;48.644;9.006;2024-02-28T15:29:29;10.00;99.90
21906;DHT22;11117;48.644;9.006;2024-02-28T15:31:54;9.90;99.90
21906;DHT22;11117;48.644;9.006;2024-02-28T15:34:20;9.90;99.90
21906;DHT22;11117;48.644;9.006;2024-02-28T15:36:45;10.00;99.90
21906;DHT22;11117;48.644;9.006;2024-02-28T15:39:11;10.10;99.90